Time;durP1;ratioP1;P1;durP2;ratioP2;P2;SDS_P1;SDS_P2;PMS_P1;PMS_P2;Temp;Humidity;BMP_temperature;BMP_pressure;BME280_temperature;BME280_humidity;BME280_pressure;Samples;Min_cycle;Max_cycle;Signal;HPM_P1;HPM_P2
2022/07/17 00:02:14;;;;;;;3.10;1.10;;;;;;;23.15;42.06;102635.28;5092316;28;20082;-72
2022/07/17 00:04:39;;;;;;;4.60;1.40;;;;;;;23.17;41.69;102638.69;5092662;28;20020;-72
2022/07/17 00:07:04;;;;;;;3.50;1.38;;;;;;;23.07;41.97;102627.84;5092352;28;20027;-72
2022/07/17 00:09:30;;;;;;;3.65;1.02;;;;;;;23.13;41.86;102640.72;5093308;28;20031;-72
2022/07/17 00:11:55;;;;;;;4.13;1.48;;;;;;;23.13;41.93;102640.72;5092596;28;20040;-72
2022/07/17 00:14:26;;;;;;;3.92;1.20;;;;;;;23.09;42.07;102633.94;5091931;28;20426;-72
2022/07/17 00:16:53;;;;;;;3.47;1.23;;;;;;;23.11;42.21;102639.97;5092665;28;20020;-72
2022/07/17 00:19:20;;;;;;;3.10;1.17;;;;;;;23.09;41.96;102644.56;5092356;28;20106;-72
2022/07/17 00:21:45;;;;;;;4.28;1.20;;;;;;;23.09;42.12;102641.91;5092162;28;20016;-72
2022/07/17 00:24:12;;;;;;;4.15;1.38;;;;;;;23.08;42.35;102650.00;5093155;28;20022;-72
2022/07/17 00:26:37;;;;;;;3.25;1.15;;;;;;;22.96;42.32;102633.13;5092474;28;20111;-72
2022/07/17 00:29:03;;;;;;;4.38;1.30;;;;;;;23.06;41.98;102650.06;5091982;28;20119;-72
2022/07/17 00:31:29;;;;;;;4.75;1.77;;;;;;;23.06;42.15;102643.91;5092929;28;20030;-72
2022/07/17 00:33:54;;;;;;;2.55;1.20;;;;;;;23.04;42.32;102643.19;5092405;28;20024;-72
2022/07/17 00:36:20;;;;;;;3.35;1.25;;;;;;;23.03;42.11;102644.16;5091866;28;20024;-72
2022/07/17 00:38:45;;;;;;;5.07;1.10;;;;;;;23.00;41.97;102646.09;5092555;28;20095;-72
2022/07/17 00:41:14;;;;;;;4.30;1.30;;;;;;;22.97;42.02;102638.31;5092830;28;20482;-72
2022/07/17 00:43:39;;;;;;;3.92;1.30;;;;;;;23.01;42.22;102638.94;5091730;28;20268;-72
2022/07/17 00:46:05;;;;;;;5.05;1.52;;;;;;;23.00;41.78;102637.22;5092634;28;20043;-72
2022/07/17 00:48:31;;;;;;;3.85;1.48;;;;;;;23.00;41.86;102650.53;5092652;28;20048;-72
2022/07/17 00:50:56;;;;;;;3.88;1.50;;;;;;;22.99;41.91;102649.69;5091511;28;20493;-72
2022/07/17 00:53:23;;;;;;;3.97;1.30;;;;;;;22.97;41.96;102648.97;5092741;28;20024;-72
2022/07/17 00:55:48;;;;;;;3.25;1.30;;;;;;;22.94;42.03;102641.22;5092543;28;20031;-72
2022/07/17 00:58:20;;;;;;;4.15;1.60;;;;;;;22.98;41.78;102641.81;5092221;28;20368;-72
2022/07/17 01:00:48;;;;;;;4.75;1.42;;;;;;;22.95;42.15;102634.06;5092524;28;20102;-72
2022/07/17 01:03:14;;;;;;;4.53;1.40;;;;;;;22.97;42.05;102640.13;5091983;28;20390;-72
2022/07/17 01:05:42;;;;;;;2.78;1.25;;;;;;;22.94;42.19;102640.34;5092487;28;20074;-73
2022/07/17 01:08:07;;;;;;;2.33;0.90;;;;;;;22.94;42.03;102629.72;5092670;28;20028;-72
2022/07/17 01:10:32;;;;;;;4.32;1.35;;;;;;;22.93;41.90;102630.69;5091926;28;20353;-72
2022/07/17 01:12:58;;;;;;;5.25;1.40;;;;;;;22.93;42.00;102625.38;5092484;28;20023;-72
2022/07/17 01:15:23;;;;;;;5.05;1.67;;;;;;;22.91;42.15;102627.31;5093958;28;20022;-72
2022/07/17 01:17:49;;;;;;;3.25;1.33;;;;;;;22.91;42.02;102633.47;5092627;28;20507;-72
2022/07/17 01:20:15;;;;;;;4.53;1.40;;;;;;;22.91;42.04;102632.63;5094227;28;20080;-71
2022/07/17 01:22:46;;;;;;;3.55;1.35;;;;;;;22.89;41.85;102635.41;5093389;28;20016;-72
2022/07/17 01:25:12;;;;;;;3.17;1.40;;;;;;;22.88;41.84;102638.16;5091867;28;20036;-72
2022/07/17 01:27:37;;;;;;;3.78;1.52;;;;;;;22.87;42.20;102636.47;5095229;28;20383;-72
2022/07/17 01:30:07;;;;;;;3.55;1.40;;;;;;;22.84;42.02;102629.53;5095882;28;20468;-72
2022/07/17 01:32:38;;;;;;;3.30;1.17;;;;;;;22.86;42.34;102640.06;5094890;28;20024;-72
2022/07/17 01:35:04;;;;;;;3.70;1.25;;;;;;;22.80;42.28;102631.59;5095897;28;20031;-72
2022/07/17 01:37:30;;;;;;;3.38;1.27;;;;;;;22.78;42.10;102617.56;5095835;28;20031;-72
2022/07/17 01:39:56;;;;;;;3.53;1.30;;;;;;;22.80;42.24;102615.63;5094816;28;20429;-72
2022/07/17 01:42:23;;;;;;;4.70;1.50;;;;;;;22.81;41.94;102620.00;5095440;28;20028;-72
2022/07/17 01:44:52;;;;;;;5.25;1.50;;;;;;;22.80;42.20;102618.28;5095405;28;20074;-72
2022/07/17 01:47:20;;;;;;;3.85;1.38;;;;;;;22.80;41.92;102625.44;5095054;28;20024;-72
2022/07/17 01:49:54;;;;;;;4.03;1.55;;;;;;;22.78;42.41;102622.03;5095519;28;20024;-72
2022/07/17 01:52:20;;;;;;;5.25;1.60;;;;;;;22.77;42.11;102629.16;5095736;28;20501;-72
2022/07/17 01:54:46;;;;;;;4.28;1.73;;;;;;;22.73;42.23;102625.03;5094638;28;20064;-72
2022/07/17 01:57:11;;;;;;;4.95;1.75;;;;;;;22.76;42.24;102627.44;5095361;28;20028;-72
2022/07/17 01:59:39;;;;;;;2.78;1.13;;;;;;;22.77;41.93;102636.28;5094723;28;20020;-72
2022/07/17 02:02:06;;;;;;;4.15;1.40;;;;;;;22.75;42.12;102631.09;5095902;28;20027;-72
2022/07/17 02:04:32;;;;;;;3.20;1.30;;;;;;;22.71;42.46;102634.06;5095594;28;20031;-72
2022/07/17 02:06:58;;;;;;;4.05;1.35;;;;;;;22.74;42.33;102645.31;5094385;28;20028;-72
2022/07/17 02:09:23;;;;;;;3.70;1.30;;;;;;;22.73;42.45;102642.78;5096016;28;20031;-72
2022/07/17 02:11:49;;;;;;;4.00;1.40;;;;;;;22.72;42.08;102641.09;5095285;28;20036;-72
2022/07/17 02:14:15;;;;;;;2.92;1.40;;;;;;;22.70;42.02;102632.38;5095127;28;20020;-72
2022/07/17 02:16:40;;;;;;;3.63;1.52;;;;;;;22.71;42.29;102637.56;5095865;28;20024;-73
2022/07/17 02:19:14;;;;;;;3.53;1.20;;;;;;;22.70;42.05;102638.56;5095757;28;20024;-72
2022/07/17 02:21:40;;;;;;;3.13;1.20;;;;;;;22.61;42.25;102615.31;5094587;28;20032;-72
2022/07/17 02:24:08;;;;;;;4.93;1.60;;;;;;;22.68;42.00;102629.81;5095373;28;20028;-72
2022/07/17 02:26:33;;;;;;;3.70;1.38;;;;;;;22.68;42.29;102643.09;5094966;28;20024;-71
2022/07/17 02:29:02;;;;;;;3.22;1.30;;;;;;;22.65;42.17;102640.66;5093559;28;20027;-72
2022/07/17 02:31:27;;;;;;;4.10;1.30;;;;;;;22.65;42.04;102638.00;5094591;28;20028;-72
2022/07/17 02:33:53;;;;;;;3.38;1.17;;;;;;;22.66;42.23;102629.09;5094226;28;20085;-72
2022/07/17 02:36:18;;;;;;;4.35;1.70;;;;;;;22.66;42.48;102633.56;5093953;28;20028;-72
2022/07/17 02:38:43;;;;;;;3.70;1.33;;;;;;;22.64;42.39;102639.84;5094063;28;20035;-72
2022/07/17 02:41:09;;;;;;;4.13;1.20;;;;;;;22.64;42.25;102633.69;5094426;28;20142;-72
2022/07/17 02:43:34;;;;;;;4.68;1.55;;;;;;;22.62;42.20;102631.13;5093825;28;20028;-72
2022/07/17 02:46:01;;;;;;;3.60;1.63;;;;;;;22.59;42.01;102619.88;5094238;28;20024;-72
2022/07/17 02:48:26;;;;;;;3.97;1.23;;;;;;;22.59;41.92;102615.41;5094262;28;20463;-72
2022/07/17 02:50:51;;;;;;;3.60;1.30;;;;;;;22.60;42.11;102616.25;5093230;28;20114;-72
2022/07/17 02:53:16;;;;;;;3.60;1.20;;;;;;;22.58;42.32;102620.84;5094264;28;20073;-72
2022/07/17 02:55:42;;;;;;;2.70;1.30;;;;;;;22.59;41.55;102622.53;5093777;28;20343;-71
2022/07/17 02:58:07;;;;;;;4.95;1.63;;;;;;;22.50;42.17;102612.56;5094037;28;20333;-71
2022/07/17 03:00:38;;;;;;;3.65;1.17;;;;;;;22.58;41.94;102615.53;5094246;28;20028;-72
2022/07/17 03:03:03;;;;;;;3.20;1.38;;;;;;;22.55;42.15;102624.56;5093457;28;20503;-71
2022/07/17 03:05:29;;;;;;;3.80;1.13;;;;;;;22.55;42.11;102624.56;5094019;28;20024;-71
2022/07/17 03:07:54;;;;;;;4.18;1.75;;;;;;;22.52;42.15;102626.59;5093583;28;20118;-72
2022/07/17 03:10:20;;;;;;;2.95;1.25;;;;;;;22.54;42.12;102627.31;5092974;28;20020;-72
2022/07/17 03:12:45;;;;;;;3.50;1.30;;;;;;;22.53;42.26;102634.44;5093500;28;20036;-71
2022/07/17 03:15:11;;;;;;;4.43;1.40;;;;;;;22.47;42.21;102634.88;5094009;28;20038;-72
2022/07/17 03:17:38;;;;;;;2.95;1.20;;;;;;;22.52;42.17;102642.53;5092920;28;20487;-71
2022/07/17 03:20:07;;;;;;;3.88;1.23;;;;;;;22.52;42.23;102648.69;5093755;28;20036;-72
2022/07/17 03:22:32;;;;;;;2.90;1.10;;;;;;;22.46;42.22;102636.72;5093584;28;20519;-71
2022/07/17 03:24:57;;;;;;;4.38;1.48;;;;;;;22.49;42.18;102646.25;5092492;28;20115;-72
2022/07/17 03:27:23;;;;;;;3.25;1.17;;;;;;;22.50;42.18;102642.63;5093815;28;20036;-71
2022/07/17 03:29:49;;;;;;;3.75;1.20;;;;;;;22.50;41.94;102639.16;5093487;28;20016;-71
2022/07/17 03:32:14;;;;;;;3.13;1.20;;;;;;;22.47;42.01;102632.22;5093204;28;20513;-71
2022/07/17 03:34:41;;;;;;;3.28;1.10;;;;;;;22.48;41.98;102646.34;5093267;28;20028;-71
2022/07/17 03:37:10;;;;;;;4.28;1.50;;;;;;;22.47;41.94;102640.19;5093503;28;20391;-72
2022/07/17 03:39:35;;;;;;;3.83;1.20;;;;;;;22.44;42.23;102630.63;5092437;28;20073;-72
2022/07/17 03:42:00;;;;;;;2.80;1.20;;;;;;;22.44;42.26;102635.94;5093507;28;20032;-71
2022/07/17 03:44:28;;;;;;;4.78;1.42;;;;;;;22.45;41.99;102634.16;5093462;28;20056;-71
2022/07/17 03:46:54;;;;;;;3.42;1.33;;;;;;;22.45;42.03;102640.31;5092348;28;20894;-71
2022/07/17 03:49:19;;;;;;;3.43;1.30;;;;;;;22.44;42.19;102633.28;5092719;28;20103;-72
2022/07/17 03:51:44;;;;;;;3.60;1.67;;;;;;;22.43;42.13;102634.28;5092932;28;20269;-71
2022/07/17 03:54:10;;;;;;;2.77;1.30;;;;;;;22.43;42.05;102639.59;5092664;28;20024;-72
2022/07/17 03:56:35;;;;;;;5.38;1.40;;;;;;;22.42;42.29;102640.53;5093066;28;20264;-71
2022/07/17 03:59:03;;;;;;;3.47;1.10;;;;;;;22.43;42.22;102628.09;5093136;28;20028;-72
2022/07/17 04:01:29;;;;;;;3.47;1.20;;;;;;;22.41;42.00;102630.00;5093087;28;20098;-72
2022/07/17 04:03:54;;;;;;;3.55;1.40;;;;;;;22.39;42.09;102638.09;5092912;28;20058;-71
2022/07/17 04:06:19;;;;;;;3.88;1.48;;;;;;;22.40;42.21;102642.47;5092157;28;20028;-71
2022/07/17 04:08:44;;;;;;;2.08;1.00;;;;;;;22.40;42.09;102646.94;5092550;28;20020;-71
2022/07/17 04:11:11;;;;;;;2.90;1.20;;;;;;;22.39;41.90;102643.41;5092925;28;20044;-71
2022/07/17 04:13:37;;;;;;;3.38;1.30;;;;;;;22.39;42.35;102642.56;5091800;28;20268;-72
2022/07/17 04:16:02;;;;;;;2.95;1.15;;;;;;;22.39;42.28;102651.38;5092957;28;20497;-72
2022/07/17 04:18:33;;;;;;;3.55;1.30;;;;;;;22.38;42.44;102647.03;5093004;28;20054;-71
2022/07/17 04:21:01;;;;;;;3.50;1.25;;;;;;;22.38;42.29;102655.00;5091782;28;20031;-71
2022/07/17 04:23:27;;;;;;;4.15;1.25;;;;;;;22.36;42.31;102664.88;5093029;28;20024;-71
2022/07/17 04:25:53;;;;;;;3.10;1.23;;;;;;;22.39;42.18;102655.84;5092446;28;20047;-72
2022/07/17 04:28:19;;;;;;;3.80;1.33;;;;;;;22.38;42.40;102660.31;5091976;28;20028;-72
2022/07/17 04:30:44;;;;;;;3.78;1.25;;;;;;;22.36;42.50;102651.59;5092485;28;20027;-71
2022/07/17 04:33:10;;;;;;;3.15;1.15;;;;;;;22.37;42.53;102650.63;5092847;28;20078;-71
2022/07/17 04:35:35;;;;;;;3.47;1.30;;;;;;;22.36;42.63;102662.22;5091656;28;20024;-72
2022/07/17 04:38:04;;;;;;;2.67;1.20;;;;;;;22.35;42.61;102657.88;5093064;28;20056;-72
2022/07/17 04:40:29;;;;;;;3.30;1.40;;;;;;;22.36;42.67;102653.41;5092939;28;20021;-71
2022/07/17 04:42:55;;;;;;;3.40;1.10;;;;;;;22.38;42.43;102648.81;5091542;28;20159;-71
2022/07/17 04:45:20;;;;;;;3.17;1.20;;;;;;;22.34;42.55;102639.41;5092901;28;20039;-72
2022/07/17 04:47:45;;;;;;;4.00;1.35;;;;;;;22.37;42.59;102645.34;5092327;28;20472;-71
2022/07/17 04:50:11;;;;;;;3.47;1.23;;;;;;;22.37;42.40;102647.16;5091782;28;20113;-71
2022/07/17 04:52:39;;;;;;;3.13;1.20;;;;;;;22.37;42.39;102655.94;5092452;28;20273;-71
2022/07/17 04:55:05;;;;;;;2.95;1.17;;;;;;;22.36;42.53;102659.56;5092585;28;20074;-71
2022/07/17 04:57:31;;;;;;;3.92;1.42;;;;;;;22.37;42.39;102661.28;5091625;28;20023;-71
2022/07/17 04:59:56;;;;;;;4.50;1.38;;;;;;;22.35;42.45;102663.19;5092107;28;20111;-71
2022/07/17 05:02:24;;;;;;;3.60;1.52;;;;;;;22.38;42.46;102676.25;5094558;28;20048;-72
2022/07/17 05:04:50;;;;;;;2.70;1.20;;;;;;;22.33;42.84;102664.25;5096192;28;20028;-71
2022/07/17 05:07:15;;;;;;;3.83;1.50;;;;;;;22.38;42.50;102676.25;5096671;28;20102;-71
2022/07/17 05:09:41;;;;;;;3.45;1.25;;;;;;;22.40;42.52;102673.50;5095531;28;20028;-72
2022/07/17 05:12:06;;;;;;;4.82;1.30;;;;;;;22.38;42.32;102675.38;5096072;28;20032;-72
2022/07/17 05:14:32;;;;;;;4.60;1.42;;;;;;;22.41;42.58;102675.16;5096135;28;20020;-71
2022/07/17 05:16:57;;;;;;;3.10;1.35;;;;;;;22.38;42.57;102668.28;5095012;28;20020;-71
2022/07/17 05:19:23;;;;;;;4.80;1.20;;;;;;;22.40;42.48;102663.72;5095944;28;20064;-71
2022/07/17 05:21:49;;;;;;;3.58;1.25;;;;;;;22.40;42.54;102661.06;5096034;28;20280;-72
2022/07/17 05:24:14;;;;;;;3.17;1.23;;;;;;;22.41;42.10;102659.22;5095237;28;20383;-72
2022/07/17 05:26:39;;;;;;;3.15;1.40;;;;;;;22.43;42.54;102657.31;5095577;28;20039;-72
2022/07/17 05:29:04;;;;;;;3.40;1.20;;;;;;;22.42;42.36;102661.78;5095805;28;20066;-72
2022/07/17 05:31:30;;;;;;;4.53;1.70;;;;;;;22.43;42.22;102662.63;5095306;28;20261;-72
2022/07/17 05:33:58;;;;;;;7.53;1.30;;;;;;;22.41;42.50;102659.22;5095430;28;20024;-71
2022/07/17 05:36:23;;;;;;;3.22;1.30;;;;;;;22.40;42.30;102661.06;5096006;28;20077;-72
2022/07/17 05:38:49;;;;;;;3.63;1.38;;;;;;;22.42;42.49;102666.25;5094765;28;20024;-71
2022/07/17 05:41:14;;;;;;;3.17;1.30;;;;;;;22.44;42.55;102662.50;5095741;28;20028;-71
2022/07/17 05:43:39;;;;;;;3.10;1.20;;;;;;;22.44;42.49;102667.81;5095327;28;20273;-71
2022/07/17 05:46:04;;;;;;;3.40;1.20;;;;;;;22.45;42.36;102669.53;5094803;28;20073;-71
2022/07/17 05:48:31;;;;;;;2.67;1.35;;;;;;;22.45;42.57;102661.56;5095369;28;20320;-71
2022/07/17 05:50:56;;;;;;;5.80;1.60;;;;;;;22.45;42.40;102655.41;5095439;28;20099;-71
2022/07/17 05:53:21;;;;;;;3.05;1.23;;;;;;;22.46;42.45;102667.72;5095163;28;20103;-71
2022/07/17 05:55:47;;;;;;;3.97;1.45;;;;;;;22.37;42.69;102660.44;5095526;28;20020;-71
2022/07/17 05:58:12;;;;;;;4.13;1.40;;;;;;;22.45;42.55;102658.06;5095654;28;20024;-71
2022/07/17 06:00:38;;;;;;;2.58;1.20;;;;;;;22.46;42.70;102659.75;5094809;28;20024;-71
2022/07/17 06:03:03;;;;;;;3.25;1.30;;;;;;;22.48;42.34;102667.59;5095608;28;20048;-72
2022/07/17 06:05:29;;;;;;;2.45;1.27;;;;;;;22.50;42.51;102657.75;5096453;28;20020;-65
2022/07/17 06:07:56;;;;;;;5.43;2.47;;;;;;;22.36;40.63;102654.25;5094674;28;20036;-68
2022/07/17 06:10:25;;;;;;;7.97;3.28;;;;;;;22.06;40.67;102652.78;5095448;28;20072;-66
2022/07/17 06:12:52;;;;;;;6.78;2.70;;;;;;;21.63;41.67;102642.44;5093306;28;20507;-66
2022/07/17 06:15:22;;;;;;;7.13;2.95;;;;;;;21.17;42.88;102649.03;5094979;28;20050;-66
2022/07/17 06:17:47;;;;;;;7.18;2.83;;;;;;;20.77;43.62;102646.31;5094620;28;20043;-66
2022/07/17 06:20:14;;;;;;;5.95;2.67;;;;;;;20.47;44.66;102649.06;5094260;28;20476;-67
2022/07/17 06:22:40;;;;;;;8.65;3.03;;;;;;;20.19;45.33;102639.38;5094657;28;20079;-66
2022/07/17 06:25:06;;;;;;;6.60;3.45;;;;;;;20.01;45.88;102644.88;5094968;28;20024;-66
2022/07/17 06:27:32;;;;;;;6.18;3.08;;;;;;;19.85;46.43;102644.94;5093939;28;20028;-65
2022/07/17 06:30:00;;;;;;;7.97;2.90;;;;;;;19.73;46.96;102646.47;5094498;28;20456;-66
2022/07/17 06:32:25;;;;;;;7.13;3.20;;;;;;;19.62;47.24;102650.72;5094567;28;20034;-65
2022/07/17 06:34:51;;;;;;;6.75;3.00;;;;;;;19.53;46.93;102666.16;5093640;28;20107;-64
2022/07/17 06:37:16;;;;;;;7.00;2.83;;;;;;;19.45;47.06;102668.41;5094603;28;20073;-63
2022/07/17 06:39:42;;;;;;;5.88;2.50;;;;;;;19.40;47.17;102673.13;5094136;28;20046;-64
2022/07/17 06:42:07;;;;;;;6.20;2.75;;;;;;;19.36;47.39;102669.81;5093676;28;20028;-65
2022/07/17 06:44:34;;;;;;;5.90;2.65;;;;;;;19.26;47.23;102673.91;5094522;28;20096;-71
2022/07/17 06:46:59;;;;;;;5.82;2.83;;;;;;;19.11;48.29;102688.84;5095287;28;20036;-69
2022/07/17 06:49:24;;;;;;;8.30;2.60;;;;;;;18.99;47.88;102687.78;5093904;28;20112;-69
2022/07/17 06:51:50;;;;;;;6.05;2.75;;;;;;;18.99;48.24;102690.41;5094550;28;20028;-68
2022/07/17 06:54:15;;;;;;;7.15;2.63;;;;;;;19.04;48.41;102684.84;5094356;28;20069;-71
2022/07/17 06:56:41;;;;;;;5.45;2.20;;;;;;;19.13;48.38;102694.91;5093047;28;20106;-69
2022/07/17 06:59:09;;;;;;;7.15;2.50;;;;;;;19.19;48.88;102683.97;5094187;28;20081;-69
2022/07/17 07:01:36;;;;;;;6.90;2.85;;;;;;;19.24;48.83;102688.16;5093125;28;20067;-68
2022/07/17 07:04:02;;;;;;;7.65;3.00;;;;;;;19.28;48.47;102692.31;5093408;28;20028;-69
2022/07/17 07:06:28;;;;;;;9.40;2.90;;;;;;;19.30;48.42;102701.88;5094095;28;20032;-69
2022/07/17 07:08:53;;;;;;;8.95;2.78;;;;;;;19.32;47.89;102693.88;5093814;28;20103;-68
2022/07/17 07:11:18;;;;;;;5.93;2.50;;;;;;;19.31;47.85;102700.97;5093013;28;20068;-67
2022/07/17 07:13:44;;;;;;;6.88;2.40;;;;;;;19.38;47.95;102701.44;5093517;28;20277;-67
2022/07/17 07:16:10;;;;;;;5.28;2.28;;;;;;;19.49;47.77;102711.41;5093294;28;20028;-69
2022/07/17 07:18:35;;;;;;;9.00;3.22;;;;;;;19.54;47.28;102712.00;5093674;28;20033;-68
2022/07/17 07:21:03;;;;;;;7.70;2.60;;;;;;;19.58;48.07;102713.50;5093950;28;20392;-66
2022/07/17 07:23:30;;;;;;;6.55;2.75;;;;;;;19.63;47.17;102707.94;5092227;28;20127;-66
2022/07/17 07:25:55;;;;;;;5.43;2.25;;;;;;;19.71;47.94;102705.69;5093564;28;20111;-71
2022/07/17 07:28:21;;;;;;;7.28;2.47;;;;;;;19.78;46.78;102707.09;5093578;28;20032;-67
2022/07/17 07:30:46;;;;;;;6.32;2.40;;;;;;;19.83;46.81;102714.75;5092416;28;20472;-68
2022/07/17 07:33:12;;;;;;;5.43;2.17;;;;;;;19.87;46.04;102703.06;5093760;28;20028;-67
2022/07/17 07:35:37;;;;;;;6.72;2.05;;;;;;;19.93;45.61;102695.59;5093463;28;20459;-71
2022/07/17 07:38:03;;;;;;;5.85;2.33;;;;;;;20.01;46.03;102699.56;5092845;28;20035;-73
2022/07/17 07:40:29;;;;;;;5.93;2.20;;;;;;;20.10;46.20;102699.03;5093646;28;20020;-74
2022/07/17 07:42:54;;;;;;;6.18;2.17;;;;;;;20.18;46.77;102702.03;5092995;28;20085;-66
2022/07/17 07:45:20;;;;;;;5.45;1.88;;;;;;;20.23;44.88;102701.78;5092503;28;20024;-66
2022/07/17 07:47:50;;;;;;;5.45;2.20;;;;;;;20.25;46.46;102713.09;5093084;28;20036;-67
2022/07/17 07:50:16;;;;;;;4.78;2.10;;;;;;;20.24;45.84;102712.25;5093408;28;20024;-67
2022/07/17 07:52:42;;;;;;;7.20;2.22;;;;;;;20.28;46.24;102716.44;5092199;28;20024;-66
2022/07/17 07:55:09;;;;;;;6.13;2.30;;;;;;;20.35;46.49;102719.56;5093244;28;20379;-66
2022/07/17 07:57:35;;;;;;;6.47;2.40;;;;;;;20.42;45.18;102712.09;5092789;28;20024;-67
2022/07/17 08:00:00;;;;;;;5.28;1.95;;;;;;;20.45;45.00;102711.88;5092273;28;20020;-67
2022/07/17 08:02:26;;;;;;;6.27;1.90;;;;;;;20.48;44.67;102715.19;5093297;28;20031;-67
2022/07/17 08:04:51;;;;;;;5.80;1.90;;;;;;;20.49;45.19;102710.78;5092818;28;20269;-66
2022/07/17 08:07:16;;;;;;;3.83;1.70;;;;;;;20.52;46.00;102713.22;5092070;28;20475;-67
2022/07/17 08:09:42;;;;;;;6.22;2.00;;;;;;;20.53;45.79;102712.25;5092818;28;20024;-67
2022/07/17 08:12:07;;;;;;;6.32;1.60;;;;;;;20.54;45.61;102718.44;5092692;28;20085;-68
2022/07/17 08:14:32;;;;;;;6.05;1.85;;;;;;;20.58;44.70;102723.41;5092328;28;20040;-68
2022/07/17 08:16:58;;;;;;;4.75;1.70;;;;;;;20.61;44.99;102719.75;5092389;28;20099;-67
2022/07/17 08:19:23;;;;;;;5.60;2.17;;;;;;;20.64;45.15;102728.38;5092275;28;20028;-69
2022/07/17 08:21:48;;;;;;;7.25;2.22;;;;;;;20.68;45.29;102725.53;5092760;28;20326;-69
2022/07/17 08:24:14;;;;;;;5.05;1.88;;;;;;;20.70;45.48;102723.66;5092823;28;20356;-69
2022/07/17 08:26:39;;;;;;;6.82;1.88;;;;;;;20.70;44.95;102713.91;5091765;28;20107;-71
2022/07/17 08:29:31;;;;;;;4.65;1.80;;;;;;;20.74;44.39;102723.34;5092899;28;20020;-69
2022/07/17 08:31:56;;;;;;;5.88;1.70;;;;;;;20.79;43.91;102729.22;5092925;28;20028;-71
2022/07/17 08:34:22;;;;;;;4.82;1.38;;;;;;;20.86;43.60;102719.06;5093260;28;20531;-70
2022/07/17 08:36:47;;;;;;;4.43;2.00;;;;;;;20.98;43.95;102715.66;5096800;28;20028;-66
2022/07/17 08:39:13;;;;;;;6.97;1.60;;;;;;;21.08;44.13;102720.34;5097762;28;20356;-69
2022/07/17 08:41:38;;;;;;;4.57;1.20;;;;;;;21.20;44.01;102715.13;5096257;28;20020;-69
2022/07/17 08:44:08;;;;;;;4.18;1.10;;;;;;;21.35;43.79;102717.72;5096956;28;20020;-67
2022/07/17 08:46:37;;;;;;;3.92;1.05;;;;;;;21.49;43.80;102711.50;5096774;28;20419;-67
2022/07/17 08:49:04;;;;;;;3.50;1.05;;;;;;;21.61;43.84;102718.66;5096180;28;20022;-66
2022/07/17 08:51:30;;;;;;;5.43;1.35;;;;;;;21.76;43.78;102718.56;5097381;28;20099;-66
2022/07/17 08:54:00;;;;;;;4.78;1.55;;;;;;;21.89;43.46;102717.66;5097129;28;20031;-66
2022/07/17 08:56:26;;;;;;;3.63;1.17;;;;;;;22.07;43.21;102714.69;5096288;28;20020;-67
2022/07/17 08:58:52;;;;;;;3.33;1.05;;;;;;;22.13;42.99;102706.31;5096412;28;20024;-64
2022/07/17 09:01:19;;;;;;;6.53;1.35;;;;;;;22.17;42.89;102704.28;5096544;28;20028;-67
2022/07/17 09:04:05;;;;;;;3.90;1.10;;;;;;;22.18;42.74;102706.81;5095413;28;20070;-65
2022/07/17 09:06:35;;;;;;;2.97;0.85;;;;;;;22.23;43.06;102710.00;5096243;28;20433;-68
2022/07/17 09:09:09;;;;;;;4.50;1.30;;;;;;;22.27;42.96;102707.97;5095502;28;20459;-66
2022/07/17 09:11:41;;;;;;;;;;;;;;;22.34;42.99;102716.41;5096254;28;20464;-71
2022/07/17 09:14:07;;;;;;;4.30;1.13;;;;;;;22.41;42.58;102713.22;5096368;28;19922;-70
2022/07/17 09:16:36;;;;;;;4.22;0.95;;;;;;;22.48;42.83;102703.00;5095587;28;20107;-68
2022/07/17 09:19:01;;;;;;;4.10;1.10;;;;;;;22.52;42.72;102698.31;5096121;28;20028;-67
2022/07/17 09:21:28;;;;;;;2.35;1.00;;;;;;;22.55;42.61;102700.75;5096260;28;20529;-67
2022/07/17 09:24:01;;;;;;;4.38;1.48;;;;;;;22.59;42.21;102705.75;5095026;28;20434;-67
2022/07/17 09:26:28;;;;;;;3.30;1.17;;;;;;;22.62;42.08;102704.66;5096070;28;20028;-66
2022/07/17 09:29:02;;;;;;;4.35;1.00;;;;;;;22.65;42.08;102696.47;5095803;28;20036;-67
2022/07/17 09:31:33;;;;;;;2.45;0.70;;;;;;;22.69;41.80;102697.97;5095109;28;20099;-69
2022/07/17 09:33:59;;;;;;;4.30;1.10;;;;;;;22.73;42.01;102699.47;5096033;28;20020;-69
2022/07/17 09:36:25;;;;;;;4.18;0.95;;;;;;;22.77;41.87;102700.91;5095937;28;20062;-67
2022/07/17 09:38:55;;;;;;;2.75;0.90;;;;;;;22.82;41.62;102705.91;5094756;28;20024;-67
2022/07/17 09:41:25;;;;;;;4.03;1.20;;;;;;;22.85;41.67;102700.38;5095844;28;20106;-66
2022/07/17 09:43:52;;;;;;;3.60;1.10;;;;;;;22.87;41.53;102698.44;5094715;28;20091;-70
2022/07/17 09:46:24;;;;;;;6.22;1.00;;;;;;;22.89;42.09;102698.31;5094925;28;20032;-66
2022/07/17 09:49:01;;;;;;;4.82;1.00;;;;;;;22.93;42.02;102699.81;5095200;28;20452;-69
2022/07/17 09:51:27;;;;;;;2.25;1.00;;;;;;;22.97;42.00;102698.59;5094992;28;20051;-70
2022/07/17 09:53:58;;;;;;;4.32;1.10;;;;;;;23.03;42.02;102700.00;5095584;28;20031;-71
2022/07/17 09:56:29;;;;;;;3.22;1.10;;;;;;;23.03;41.95;102698.16;5095732;28;20032;-72
2022/07/17 09:59:13;;;;;;;2.97;1.08;;;;;;;23.05;41.77;102700.72;5094790;28;20036;-71
2022/07/17 10:01:44;;;;;;;3.03;1.20;;;;;;;23.05;41.78;102695.41;5095546;28;20060;-72
2022/07/17 10:04:10;;;;;;;3.25;0.95;;;;;;;23.04;42.27;102699.03;5096713;28;20395;-70
2022/07/17 10:06:36;;;;;;;3.35;1.00;;;;;;;23.10;42.08;102709.25;5094601;28;20412;-73
2022/07/17 10:09:04;;;;;;;2.45;0.90;;;;;;;23.14;41.77;102702.72;5095970;28;20028;-68
2022/07/17 10:11:34;;;;;;;4.45;1.25;;;;;;;23.19;41.85;102705.88;5096141;28;20082;-72
2022/07/17 10:14:05;;;;;;;4.07;1.10;;;;;;;23.23;41.99;102699.41;5095401;28;20028;-70
2022/07/17 10:16:32;;;;;;;2.95;0.95;;;;;;;23.29;41.96;102709.59;5095524;28;20028;-72
2022/07/17 10:19:02;;;;;;;2.28;1.00;;;;;;;23.33;41.50;102696.91;5093690;28;20035;-72
2022/07/17 10:21:29;;;;;;;3.35;1.05;;;;;;;23.33;41.74;102696.91;5094929;28;20027;-68
2022/07/17 10:23:55;;;;;;;3.45;0.90;;;;;;;23.32;41.75;102704.03;5094813;28;20063;-68
2022/07/17 10:26:43;;;;;;;3.53;1.00;;;;;;;23.32;41.50;102692.53;5094260;28;20020;-70
2022/07/17 10:29:27;;;;;;;3.30;1.10;;;;;;;23.30;41.66;102689.97;5095060;28;20077;-68
2022/07/17 10:31:53;;;;;;;5.25;1.10;;;;;;;23.30;41.58;102697.97;5094611;28;20472;-68
2022/07/17 10:34:22;;;;;;;3.50;1.23;;;;;;;23.30;41.54;102699.78;5094221;28;20096;-67
2022/07/17 10:36:53;;;;;;;3.83;1.00;;;;;;;23.28;41.98;102699.06;5094400;28;20498;-69
2022/07/17 10:39:20;;;;;;;6.03;1.02;;;;;;;23.26;42.01;102695.66;5094635;28;20028;-69
2022/07/17 10:42:02;;;;;;;2.40;1.00;;;;;;;23.25;41.80;102697.47;5093664;28;20024;-71
2022/07/17 10:44:31;;;;;;;3.22;0.80;;;;;;;23.24;42.08;102694.91;5094398;28;20379;-68
2022/07/17 10:46:58;;;;;;;3.60;0.90;;;;;;;23.23;41.98;102686.09;5094019;28;20029;-69
2022/07/17 10:49:24;;;;;;;3.70;1.10;;;;;;;23.23;41.93;102693.25;5094434;28;20086;-69
2022/07/17 10:51:53;;;;;;;3.03;1.13;;;;;;;23.21;42.09;102684.50;5094117;28;20070;-70
2022/07/17 10:54:19;;;;;;;3.15;0.93;;;;;;;23.21;41.97;102688.03;5093636;28;20537;-69
2022/07/17 10:56:48;;;;;;;4.95;1.00;;;;;;;23.18;42.14;102683.78;5094023;28;20032;-66
2022/07/17 10:59:13;;;;;;;4.00;1.10;;;;;;;23.20;41.39;102693.47;5094217;28;20016;-68
2022/07/17 11:01:39;;;;;;;4.07;1.00;;;;;;;23.18;41.77;102685.59;5093293;28;20482;-67
2022/07/17 11:04:06;;;;;;;2.95;1.20;;;;;;;23.17;42.05;102694.53;5094316;28;20059;-68
2022/07/17 11:06:34;;;;;;;6.25;1.20;;;;;;;23.16;41.72;102698.13;5093972;28;20069;-68
2022/07/17 11:09:08;;;;;;;4.40;1.10;;;;;;;23.15;42.09;102694.63;5093228;28;20472;-68
2022/07/17 11:11:44;;;;;;;2.63;0.95;;;;;;;23.13;42.09;102695.69;5093128;28;20062;-68
2022/07/17 11:14:16;;;;;;;3.70;1.40;;;;;;;23.12;42.16;102697.53;5094130;28;20066;-68
2022/07/17 11:16:50;;;;;;;3.03;0.90;;;;;;;23.12;42.01;102694.03;5093035;28;20031;-68
2022/07/17 11:19:32;;;;;;;4.35;1.05;;;;;;;23.10;41.93;102686.16;5094056;28;20021;-68
2022/07/17 11:22:00;;;;;;;2.67;0.95;;;;;;;23.10;42.31;102675.53;5093275;28;20024;-68
2022/07/17 11:24:37;;;;;;;3.35;1.10;;;;;;;23.09;42.19;102679.13;5093007;28;20103;-68